Time;durP1;ratioP1;P1;durP2;ratioP2;P2;SDS_P1;SDS_P2;PMS_P1;PMS_P2;Temp;Humidity;BMP_temperature;BMP_pressure;BME280_temperature;BME280_humidity;BME280_pressure;Samples;Min_cycle;Max_cycle;Signal;HPM_P1;HPM_P2
2021/09/28 00:02:17;;;;;;;2.17;0.95;;;14.10;99.90;;;;;;4872459;29;20022;-71
2021/09/28 00:04:43;;;;;;;11.30;1.58;;;14.00;99.90;;;;;;4873160;29;20153;-71
2021/09/28 00:07:09;;;;;;;9.65;1.65;;;14.00;99.90;;;;;;4872916;29;20045;-74
2021/09/28 00:09:34;;;;;;;10.88;1.83;;;14.00;99.90;;;;;;4872665;29;20037;-72
2021/09/28 00:12:00;;;;;;;3.33;1.13;;;13.90;99.90;;;;;;4872704;29;20030;-72
2021/09/28 00:14:26;;;;;;;2.75;1.17;;;13.90;99.90;;;;;;4872910;29;20033;-72
2021/09/28 00:16:51;;;;;;;2.38;1.50;;;13.90;99.90;;;;;;4872312;29;20117;-74
2021/09/28 00:19:17;;;;;;;11.68;1.65;;;13.90;99.90;;;;;;4872595;29;20089;-72
2021/09/28 00:21:43;;;;;;;12.07;1.65;;;13.80;99.90;;;;;;4872108;29;20034;-72
2021/09/28 00:24:10;;;;;;;7.45;1.42;;;13.80;99.90;;;;;;4872357;29;20044;-72
2021/09/28 00:26:37;;;;;;;6.57;1.50;;;13.70;99.90;;;;;;4872806;29;20030;-72
2021/09/28 00:29:03;;;;;;;6.30;1.58;;;13.70;99.90;;;;;;4872151;29;20042;-72
2021/09/28 00:31:29;;;;;;;1.67;0.95;;;13.70;99.90;;;;;;4872721;29;20113;-72
2021/09/28 00:33:56;;;;;;;7.65;1.67;;;13.70;99.90;;;;;;4872709;29;20065;-71
2021/09/28 00:36:23;;;;;;;5.63;2.10;;;13.60;99.90;;;;;;4872141;29;20038;-72
2021/09/28 00:38:50;;;;;;;3.40;1.38;;;13.60;99.90;;;;;;4872113;29;20029;-72
2021/09/28 00:41:15;;;;;;;6.63;1.30;;;13.50;99.90;;;;;;4872315;29;20049;-71
2021/09/28 00:43:54;;;;;;;5.75;1.83;;;13.60;99.90;;;;;;4871404;29;20040;-72
2021/09/28 00:46:22;;;;;;;2.67;1.15;;;13.50;99.90;;;;;;4872512;29;20047;-71
2021/09/28 00:48:47;;;;;;;6.50;1.83;;;13.50;99.90;;;;;;4872197;29;20545;-71
2021/09/28 00:51:14;;;;;;;11.13;2.10;;;13.50;99.90;;;;;;4871962;29;20054;-71
2021/09/28 00:53:41;;;;;;;1.67;1.00;;;13.40;99.90;;;;;;4872286;29;20089;-70
2021/09/28 00:56:09;;;;;;;8.38;1.48;;;13.40;99.90;;;;;;4871919;29;20040;-72
2021/09/28 00:58:36;;;;;;;5.78;1.67;;;13.40;99.90;;;;;;4871801;29;20386;-71
2021/09/28 01:01:04;;;;;;;4.45;0.93;;;13.40;99.90;;;;;;4872368;29;20030;-73
2021/09/28 01:03:33;;;;;;;13.48;1.80;;;13.30;99.90;;;;;;4871797;29;20037;-71
2021/09/28 01:05:59;;;;;;;7.63;2.22;;;13.30;99.90;;;;;;4872062;29;20048;-73
2021/09/28 01:08:26;;;;;;;3.78;1.58;;;13.30;99.90;;;;;;4872154;29;20072;-70
2021/09/28 01:10:52;;;;;;;2.67;0.98;;;13.20;99.90;;;;;;4871957;29;20032;-73
2021/09/28 01:13:18;;;;;;;0.90;0.45;;;13.20;99.90;;;;;;4871766;29;20034;-71
2021/09/28 01:15:59;;;;;;;8.27;1.88;;;13.20;99.90;;;;;;4871827;29;20037;-71
2021/09/28 01:18:26;;;;;;;6.53;1.30;;;13.20;99.90;;;;;;4871284;29;20057;-73
2021/09/28 01:20:52;;;;;;;5.38;1.05;;;13.10;99.90;;;;;;4871900;29;20034;-71
2021/09/28 01:23:17;;;;;;;6.13;0.95;;;13.10;99.90;;;;;;4888522;29;20133;-70
2021/09/28 01:25:43;;;;;;;7.22;1.80;;;13.10;99.90;;;;;;4881772;29;20037;-71
2021/09/28 01:28:09;;;;;;;5.07;1.10;;;13.00;99.90;;;;;;4890305;29;20060;-72
2021/09/28 01:30:35;;;;;;;9.88;1.80;;;13.00;99.90;;;;;;4873438;29;20085;-72
2021/09/28 01:33:01;;;;;;;7.72;1.27;;;12.90;99.90;;;;;;4890256;29;20033;-73
2021/09/28 01:35:28;;;;;;;3.28;1.13;;;12.90;99.90;;;;;;4890512;29;20041;-72
2021/09/28 01:37:53;;;;;;;9.90;1.92;;;12.80;99.90;;;;;;4890031;29;20662;-72
2021/09/28 01:40:19;;;;;;;2.55;1.27;;;12.80;99.90;;;;;;4873149;29;20106;-71
2021/09/28 01:42:44;;;;;;;7.60;2.13;;;12.80;99.90;;;;;;4890368;29;20029;-71
2021/09/28 01:45:10;;;;;;;2.83;0.95;;;12.80;99.90;;;;;;4889980;29;20037;-72
2021/09/28 01:47:36;;;;;;;3.53;0.98;;;12.80;99.90;;;;;;4890014;29;20051;-72
2021/09/28 01:50:02;;;;;;;6.75;1.63;;;12.80;99.90;;;;;;4890338;29;20048;-73
2021/09/28 01:52:27;;;;;;;1.25;0.88;;;12.70;99.90;;;;;;4890133;29;20037;-71
2021/09/28 01:54:53;;;;;;;4.50;1.58;;;12.70;99.90;;;;;;4889878;29;20037;-72
2021/09/28 01:57:18;;;;;;;1.98;1.13;;;12.80;99.90;;;;;;4889667;29;20845;-71
2021/09/28 01:59:44;;;;;;;6.47;1.45;;;12.70;99.90;;;;;;4889420;29;20041;-72
2021/09/28 02:02:10;;;;;;;2.28;1.10;;;12.60;99.90;;;;;;4889997;29;20036;-72
2021/09/28 02:04:36;;;;;;;1.48;0.60;;;12.60;99.90;;;;;;4889901;29;20505;-71
2021/09/28 02:07:01;;;;;;;3.53;1.05;;;12.60;99.90;;;;;;4889924;29;20037;-71
2021/09/28 02:09:27;;;;;;;1.75;1.13;;;12.60;99.90;;;;;;4890132;29;20029;-71
2021/09/28 02:11:52;;;;;;;5.25;1.67;;;12.60;99.90;;;;;;4890004;29;20451;-71
2021/09/28 02:14:19;;;;;;;5.20;1.38;;;12.50;99.90;;;;;;4889058;29;20066;-71
2021/09/28 02:16:45;;;;;;;6.65;1.95;;;12.60;99.90;;;;;;4889359;29;20060;-71
2021/09/28 02:19:12;;;;;;;1.42;0.90;;;12.50;99.90;;;;;;4889775;29;20033;-71
2021/09/28 02:21:37;;;;;;;4.68;1.75;;;12.50;99.90;;;;;;4889271;29;20033;-71
2021/09/28 02:24:04;;;;;;;7.30;0.93;;;12.50;99.90;;;;;;4889375;29;20028;-72
2021/09/28 02:26:30;;;;;;;0.98;0.75;;;12.50;99.90;;;;;;4890026;29;20037;-71
2021/09/28 02:28:55;;;;;;;3.28;1.08;;;12.50;99.90;;;;;;4889442;29;21031;-71
2021/09/28 02:31:21;;;;;;;5.00;1.48;;;12.50;99.90;;;;;;4889759;29;20037;-71
2021/09/28 02:33:47;;;;;;;1.52;0.95;;;12.50;99.90;;;;;;4889452;29;20029;-72
2021/09/28 02:36:13;;;;;;;6.97;1.33;;;12.40;99.90;;;;;;4889600;29;20081;-71
2021/09/28 02:38:39;;;;;;;2.30;1.33;;;12.40;99.90;;;;;;4889674;29;20025;-73
2021/09/28 02:41:05;;;;;;;7.07;1.42;;;12.40;99.90;;;;;;4872941;29;20470;-71
2021/09/28 02:43:31;;;;;;;4.95;1.35;;;12.40;99.90;;;;;;4890832;29;20088;-73
2021/09/28 02:45:57;;;;;;;8.10;1.27;;;12.40;99.90;;;;;;4893247;29;20044;-72
2021/09/28 02:48:23;;;;;;;4.53;1.88;;;12.40;99.90;;;;;;4875581;29;20069;-70
2021/09/28 02:50:48;;;;;;;1.42;1.00;;;12.30;99.90;;;;;;4892389;29;20032;-71
2021/09/28 02:53:14;;;;;;;7.13;1.52;;;12.30;99.90;;;;;;4892461;29;20052;-71
2021/09/28 02:55:40;;;;;;;3.45;1.67;;;12.30;99.90;;;;;;4892222;29;20459;-72
2021/09/28 02:58:06;;;;;;;11.57;1.45;;;12.30;99.90;;;;;;4893096;29;20107;-71
2021/09/28 03:00:32;;;;;;;12.77;1.77;;;12.20;99.90;;;;;;4893054;29;20466;-72
2021/09/28 03:02:58;;;;;;;10.25;1.58;;;12.20;99.90;;;;;;4892673;29;20029;-71
2021/09/28 03:05:23;;;;;;;2.35;1.35;;;12.20;99.90;;;;;;4892842;29;20052;-71
2021/09/28 03:07:49;;;;;;;3.30;1.73;;;12.20;99.90;;;;;;4892032;29;20064;-71
2021/09/28 03:10:15;;;;;;;5.70;1.80;;;12.20;99.90;;;;;;4891703;29;20030;-71
2021/09/28 03:12:40;;;;;;;7.45;2.13;;;12.20;99.90;;;;;;4892429;29;20033;-70
2021/09/28 03:15:07;;;;;;;2.83;1.52;;;12.20;99.90;;;;;;4891909;29;20148;-72
2021/09/28 03:17:33;;;;;;;1.42;1.10;;;12.10;99.90;;;;;;4892053;29;20049;-72
2021/09/28 03:19:58;;;;;;;8.18;2.03;;;12.10;99.90;;;;;;4892608;29;20029;-71
2021/09/28 03:22:24;;;;;;;14.25;1.40;;;12.10;99.90;;;;;;4891685;29;20096;-72
2021/09/28 03:24:49;;;;;;;2.70;1.60;;;12.10;99.90;;;;;;4875474;29;20490;-71
2021/09/28 03:27:15;;;;;;;3.22;1.63;;;12.10;99.90;;;;;;4892217;29;20070;-71
2021/09/28 03:29:41;;;;;;;3.20;1.70;;;12.00;99.90;;;;;;4891546;29;20036;-73
2021/09/28 03:32:07;;;;;;;2.28;1.77;;;12.10;99.90;;;;;;4892043;29;20058;-72
2021/09/28 03:34:33;;;;;;;3.13;1.60;;;11.90;99.90;;;;;;4892112;29;20101;-72
2021/09/28 03:36:59;;;;;;;3.05;1.33;;;11.90;99.90;;;;;;4892401;29;20029;-71
2021/09/28 03:39:24;;;;;;;4.22;1.40;;;11.90;99.90;;;;;;4892070;29;20037;-72
2021/09/28 03:41:50;;;;;;;2.15;1.40;;;11.90;99.90;;;;;;4875106;29;20037;-71
2021/09/28 03:44:16;;;;;;;5.45;2.10;;;11.90;99.90;;;;;;4891973;29;20033;-71
2021/09/28 03:46:41;;;;;;;3.58;1.65;;;11.90;99.90;;;;;;4892020;29;20467;-71
2021/09/28 03:49:07;;;;;;;10.80;1.83;;;11.90;99.90;;;;;;4891230;29;20045;-71
2021/09/28 03:51:32;;;;;;;10.32;1.65;;;11.90;99.90;;;;;;4891825;29;20025;-72
2021/09/28 03:53:58;;;;;;;3.50;1.58;;;11.80;99.90;;;;;;4892016;29;20037;-71
2021/09/28 03:56:23;;;;;;;5.00;1.30;;;11.80;99.90;;;;;;4890022;29;20069;-72
2021/09/28 03:58:49;;;;;;;1.90;1.25;;;11.80;99.90;;;;;;4891684;29;20036;-71
2021/09/28 04:01:15;;;;;;;5.35;1.42;;;11.80;99.90;;;;;;4890452;29;20048;-72
2021/09/28 04:03:41;;;;;;;2.20;1.63;;;11.80;99.90;;;;;;4891119;29;20144;-71
2021/09/28 04:06:07;;;;;;;6.38;1.63;;;11.80;99.90;;;;;;4891374;29;20052;-72
2021/09/28 04:08:33;;;;;;;4.43;2.33;;;11.70;99.90;;;;;;4874608;29;20061;-72
2021/09/28 04:10:59;;;;;;;8.35;1.92;;;11.70;99.90;;;;;;4890814;29;20100;-72
2021/09/28 04:13:25;;;;;;;3.05;1.92;;;11.70;99.90;;;;;;4885275;29;20031;-72
2021/09/28 04:15:52;;;;;;;6.90;2.47;;;11.70;99.90;;;;;;4872777;29;20483;-72
2021/09/28 04:18:18;;;;;;;12.80;2.50;;;11.70;99.90;;;;;;4872594;29;20053;-73
2021/09/28 04:20:46;;;;;;;4.28;2.33;;;11.70;99.90;;;;;;4872622;29;20066;-72
2021/09/28 04:23:13;;;;;;;5.30;2.00;;;11.70;99.90;;;;;;4883318;29;20046;-72
2021/09/28 04:25:41;;;;;;;5.47;2.10;;;11.70;99.90;;;;;;4883554;29;20107;-73
2021/09/28 04:28:08;;;;;;;7.07;2.33;;;11.70;99.90;;;;;;4887117;29;20047;-72
2021/09/28 04:30:35;;;;;;;4.00;2.00;;;11.60;99.90;;;;;;4888739;29;20025;-72
2021/09/28 04:33:02;;;;;;;3.42;2.40;;;11.60;99.90;;;;;;4887525;29;20077;-73
2021/09/28 04:35:28;;;;;;;7.25;2.30;;;11.60;99.90;;;;;;4891254;29;20039;-73
2021/09/28 04:37:54;;;;;;;4.30;2.17;;;11.60;99.90;;;;;;4890101;29;20021;-72
2021/09/28 04:40:20;;;;;;;2.58;1.83;;;11.60;99.90;;;;;;4886918;29;20112;-73
2021/09/28 04:42:46;;;;;;;4.80;2.38;;;11.50;99.90;;;;;;4878658;29;20034;-72
2021/09/28 04:45:11;;;;;;;13.10;2.90;;;11.50;99.90;;;;;;4885911;29;20085;-71
2021/09/28 04:47:38;;;;;;;3.80;2.17;;;11.50;99.90;;;;;;4890467;29;20043;-72
2021/09/28 04:50:04;;;;;;;4.65;2.42;;;11.50;99.90;;;;;;4875701;29;20046;-74
2021/09/28 04:52:30;;;;;;;3.70;2.45;;;11.40;99.90;;;;;;4883072;29;20045;-74
2021/09/28 04:54:56;;;;;;;9.30;3.28;;;11.40;99.90;;;;;;4878972;29;20093;-72
2021/09/28 04:57:21;;;;;;;6.28;2.95;;;11.50;99.90;;;;;;4874591;29;20029;-73
2021/09/28 04:59:48;;;;;;;11.50;3.53;;;11.40;99.90;;;;;;4889520;29;20065;-72
2021/09/28 05:02:14;;;;;;;10.80;3.42;;;11.40;99.90;;;;;;4879134;29;20044;-73
2021/09/28 05:04:40;;;;;;;7.38;2.95;;;11.40;99.90;;;;;;4872172;29;20050;-72
2021/09/28 05:07:06;;;;;;;4.28;2.67;;;11.30;99.90;;;;;;4889778;29;20092;-73
2021/09/28 05:09:32;;;;;;;7.97;4.07;;;11.30;99.90;;;;;;4890291;29;20040;-73
2021/09/28 05:11:59;;;;;;;5.07;3.00;;;11.30;99.90;;;;;;4890290;29;20040;-73
2021/09/28 05:14:26;;;;;;;4.90;3.47;;;11.30;99.90;;;;;;4890948;29;20081;-73
2021/09/28 05:16:52;;;;;;;5.95;3.00;;;11.30;99.90;;;;;;4890355;29;20045;-73
2021/09/28 05:19:17;;;;;;;7.75;3.85;;;11.30;99.90;;;;;;4890123;29;20064;-74
2021/09/28 05:21:43;;;;;;;6.72;3.63;;;11.30;99.90;;;;;;4890441;29;20048;-73
2021/09/28 05:24:09;;;;;;;6.95;3.40;;;11.20;99.90;;;;;;4889473;29;20044;-75
2021/09/28 05:26:35;;;;;;;7.75;3.95;;;11.20;99.90;;;;;;4889409;29;20037;-74
2021/09/28 05:29:01;;;;;;;6.32;3.00;;;11.20;99.90;;;;;;4890402;29;20057;-73
2021/09/28 05:31:28;;;;;;;6.63;3.35;;;11.10;99.90;;;;;;4889384;29;20037;-74
2021/09/28 05:33:54;;;;;;;5.13;3.13;;;11.10;99.90;;;;;;4873419;29;20029;-74
2021/09/28 05:36:20;;;;;;;7.10;3.28;;;11.10;99.90;;;;;;4890384;29;20132;-72
2021/09/28 05:38:45;;;;;;;6.05;3.17;;;11.10;99.90;;;;;;4890042;29;20104;-72
2021/09/28 05:41:11;;;;;;;6.82;3.65;;;11.00;99.90;;;;;;4890438;29;20033;-72
2021/09/28 05:43:39;;;;;;;9.73;2.92;;;11.00;99.90;;;;;;4873780;29;20474;-73
2021/09/28 05:46:05;;;;;;;11.07;3.95;;;10.90;99.90;;;;;;4889593;29;20430;-73
2021/09/28 05:48:31;;;;;;;8.40;4.00;;;11.00;99.90;;;;;;4890349;29;20359;-74
2021/09/28 05:50:58;;;;;;;8.13;3.63;;;11.00;99.90;;;;;;4878951;29;20044;-73
2021/09/28 05:53:33;;;;;;;23.00;4.75;;;11.00;99.90;;;;;;4861566;29;20485;-74
2021/09/28 05:56:01;;;;;;;7.32;3.50;;;11.00;99.90;;;;;;4880717;29;20037;-73
2021/09/28 05:58:28;;;;;;;74.15;7.05;;;11.00;99.90;;;;;;4884616;29;20462;-73
2021/09/28 06:00:53;;;;;;;11.80;4.72;;;11.00;99.90;;;;;;4888913;29;20085;-74
2021/09/28 06:03:19;;;;;;;45.85;5.88;;;11.00;99.90;;;;;;4874499;29;20037;-73
2021/09/28 06:05:45;;;;;;;8.32;4.00;;;11.00;99.90;;;;;;4884909;29;20025;-73
2021/09/28 06:08:11;;;;;;;9.40;4.80;;;11.00;99.90;;;;;;4887603;29;20044;-74
2021/09/28 06:10:37;;;;;;;18.15;5.18;;;11.00;99.90;;;;;;4883392;29;20121;-73
2021/09/28 06:13:04;;;;;;;16.70;6.45;;;11.00;99.90;;;;;;4882723;29;20022;-74
2021/09/28 06:15:30;;;;;;;21.05;5.85;;;11.10;99.90;;;;;;4869953;29;20030;-73
2021/09/28 06:17:57;;;;;;;13.68;5.85;;;11.10;99.90;;;;;;4854189;29;20085;-74
2021/09/28 06:20:22;;;;;;;14.55;6.72;;;11.10;99.90;;;;;;4887972;29;20363;-73
2021/09/28 06:22:48;;;;;;;21.80;8.10;;;11.10;99.90;;;;;;4876294;29;20044;-72
2021/09/28 06:25:13;;;;;;;20.00;7.68;;;11.20;99.90;;;;;;4874895;29;20025;-73
2021/09/28 06:27:39;;;;;;;20.40;8.65;;;11.20;99.90;;;;;;4859888;29;20046;-73
2021/09/28 06:30:05;;;;;;;26.35;8.23;;;11.20;99.90;;;;;;4857912;29;20082;-74
2021/09/28 06:32:31;;;;;;;17.83;7.25;;;11.30;99.90;;;;;;4875250;29;20081;-74
2021/09/28 06:34:57;;;;;;;17.23;7.28;;;11.30;99.90;;;;;;4888894;29;20033;-73
2021/09/28 06:37:23;;;;;;;14.25;7.28;;;11.40;99.90;;;;;;4893300;29;20033;-75
2021/09/28 06:39:49;;;;;;;15.55;7.55;;;11.40;99.90;;;;;;4893380;29;20029;-74
2021/09/28 06:42:15;;;;;;;12.38;7.60;;;11.40;99.90;;;;;;4869629;29;20041;-74
2021/09/28 06:44:40;;;;;;;12.90;7.82;;;11.40;99.90;;;;;;4885763;29;20045;-73
2021/09/28 06:47:07;;;;;;;15.13;7.97;;;11.40;99.90;;;;;;4888424;29;20052;-75
2021/09/28 06:49:33;;;;;;;13.63;7.93;;;11.50;99.90;;;;;;4883417;29;20041;-73
2021/09/28 06:52:00;;;;;;;15.80;7.55;;;11.50;99.90;;;;;;4888237;29;20039;-73
2021/09/28 06:54:26;;;;;;;13.43;7.85;;;11.50;99.90;;;;;;4884451;29;20160;-76
2021/09/28 06:56:52;;;;;;;16.48;7.53;;;11.60;99.90;;;;;;4885020;29;20550;-74
2021/09/28 06:59:18;;;;;;;18.90;8.30;;;11.70;99.90;;;;;;4893013;29;20097;-75
2021/09/28 07:01:44;;;;;;;17.83;7.55;;;11.80;99.90;;;;;;4884198;29;20025;-73
2021/09/28 07:04:10;;;;;;;16.58;8.68;;;11.90;99.90;;;;;;4865558;29;20037;-74
2021/09/28 07:06:36;;;;;;;20.83;8.00;;;11.90;99.90;;;;;;4885448;29;20033;-74
2021/09/28 07:09:02;;;;;;;17.10;8.95;;;12.00;99.90;;;;;;4892017;29;20060;-74
2021/09/28 07:11:29;;;;;;;27.20;9.50;;;12.10;99.90;;;;;;4891895;29;20419;-74
2021/09/28 07:13:54;;;;;;;35.45;10.27;;;12.20;99.90;;;;;;4892652;29;20081;-73
2021/09/28 07:16:23;;;;;;;22.17;9.25;;;12.30;99.90;;;;;;4891668;29;20033;-74
2021/09/28 07:18:49;;;;;;;18.13;9.18;;;12.40;99.90;;;;;;4891172;29;20041;-74
2021/09/28 07:21:14;;;;;;;13.90;8.13;;;12.40;99.90;;;;;;4890952;29;20025;-73
2021/09/28 07:23:41;;;;;;;24.50;8.77;;;12.50;99.90;;;;;;4872169;29;20025;-73
2021/09/28 07:26:07;;;;;;;21.90;9.00;;;12.60;99.90;;;;;;4882855;29;20026;-75
2021/09/28 07:28:37;;;;;;;29.92;9.77;;;12.60;99.90;;;;;;4858793;29;20132;-73
2021/09/28 07:31:05;;;;;;;15.10;8.30;;;12.70;99.90;;;;;;4881376;29;20033;-76
2021/09/28 07:33:32;;;;;;;20.98;8.85;;;12.80;99.90;;;;;;4859151;29;20037;-75
2021/09/28 07:35:58;;;;;;;15.25;8.98;;;12.90;99.90;;;;;;4873520;29;20042;-74
2021/09/28 07:38:23;;;;;;;21.42;7.82;;;13.10;99.90;;;;;;4885382;29;20033;-73
2021/09/28 07:40:50;;;;;;;17.42;8.30;;;13.20;99.90;;;;;;4880661;29;20087;-75
2021/09/28 07:43:19;;;;;;;18.88;7.22;;;13.50;99.90;;;;;;4876509;29;20053;-75
2021/09/28 07:45:45;;;;;;;21.05;8.13;;;13.70;99.90;;;;;;4863156;29;20582;-74
2021/09/28 07:48:10;;;;;;;15.20;7.22;;;13.80;99.90;;;;;;4889755;29;20061;-73
2021/09/28 07:50:36;;;;;;;14.60;6.35;;;14.00;99.90;;;;;;4860135;29;20040;-74
2021/09/28 07:53:05;;;;;;;8.95;4.95;;;14.30;99.90;;;;;;4871019;29;20040;-76
2021/09/28 07:55:32;;;;;;;9.75;5.75;;;14.50;99.90;;;;;;4891225;29;20033;-75
2021/09/28 07:57:58;;;;;;;17.60;5.82;;;14.60;99.90;;;;;;4891577;29;20033;-74
2021/09/28 08:00:24;;;;;;;15.77;5.60;;;14.80;99.90;;;;;;4874914;29;20025;-76
2021/09/28 08:02:50;;;;;;;13.50;5.18;;;15.00;99.90;;;;;;4874620;29;20044;-75
2021/09/28 08:05:15;;;;;;;8.68;5.38;;;15.10;99.90;;;;;;4874517;29;20029;-75
2021/09/28 08:07:41;;;;;;;10.43;5.03;;;15.20;99.90;;;;;;4891723;29;20049;-74
2021/09/28 08:10:10;;;;;;;7.25;4.80;;;15.20;99.90;;;;;;4891848;29;20037;-74
2021/09/28 08:12:36;;;;;;;14.10;5.72;;;15.30;99.90;;;;;;4891369;29;20033;-75
2021/09/28 08:15:03;;;;;;;11.45;6.00;;;15.40;99.90;;;;;;4874700;29;20029;-75
2021/09/28 08:17:29;;;;;;;10.52;4.65;;;15.30;99.90;;;;;;4874243;29;20151;-71
2021/09/28 08:19:54;;;;;;;16.13;5.82;;;15.30;99.90;;;;;;4888517;29;20041;-73
2021/09/28 08:22:21;;;;;;;11.15;5.25;;;15.30;99.90;;;;;;4858133;29;20868;-73
2021/09/28 08:24:50;;;;;;;9.38;5.10;;;15.30;99.90;;;;;;4885287;29;20073;-73
2021/09/28 08:30:04;;;;;;;14.35;5.07;;;15.20;99.90;;;;;;4873117;29;20388;-74
2021/09/28 08:32:29;;;;;;;13.20;6.45;;;15.30;99.90;;;;;;4856033;29;20030;-74
2021/09/28 08:34:55;;;;;;;12.18;5.90;;;15.20;99.90;;;;;;4870723;29;20056;-74
2021/09/28 08:37:21;;;;;;;13.30;6.30;;;15.40;99.90;;;;;;4858745;29;20941;-75
2021/09/28 08:39:46;;;;;;;13.75;6.57;;;15.40;99.90;;;;;;4854665;29;20121;-74
2021/09/28 08:42:13;;;;;;;14.18;7.05;;;15.40;99.90;;;;;;4871165;29;20419;-74
2021/09/28 08:44:40;;;;;;;14.63;6.63;;;15.30;99.90;;;;;;4855612;29;20064;-75
2021/09/28 08:47:06;;;;;;;25.40;7.25;;;15.50;99.90;;;;;;4871821;29;20034;-74
2021/09/28 08:49:32;;;;;;;20.67;7.50;;;15.50;99.90;;;;;;4871904;29;20402;-75
2021/09/28 08:52:02;;;;;;;22.60;8.07;;;15.60;99.90;;;;;;4872276;29;20095;-74
2021/09/28 08:54:28;;;;;;;26.23;9.05;;;15.60;99.90;;;;;;4865358;29;20585;-73
2021/09/28 08:56:56;;;;;;;20.65;8.35;;;15.70;99.90;;;;;;4873917;29;20029;-73
2021/09/28 08:59:23;;;;;;;31.60;10.68;;;15.70;99.90;;;;;;4873839;29;20052;-74
2021/09/28 09:01:57;;;;;;;14.70;7.30;;;15.80;99.90;;;;;;4873195;29;20425;-74
2021/09/28 09:04:25;;;;;;;;;;;15.80;99.90;;;;;;4890026;29;20029;-74
2021/09/28 09:06:54;;;;;;;22.40;8.93;;;15.80;99.90;;;;;;4879586;29;19995;-76
2021/09/28 09:09:21;;;;;;;17.98;8.60;;;15.80;99.90;;;;;;4869907;29;20063;-75
2021/09/28 09:11:49;;;;;;;17.05;8.63;;;15.90;99.90;;;;;;4883088;29;20061;-75
2021/09/28 09:14:17;;;;;;;18.75;8.98;;;15.90;99.90;;;;;;4865440;29;20052;-75
2021/09/28 09:16:45;;;;;;;29.98;8.13;;;16.00;99.90;;;;;;4887971;29;20554;-76
2021/09/28 09:19:16;;;;;;;22.13;9.38;;;16.10;99.90;;;;;;4874261;29;20120;-77
2021/09/28 09:21:58;;;;;;;17.90;7.93;;;16.20;99.90;;;;;;4890970;29;20029;-75
2021/09/28 09:24:41;;;;;;;13.93;6.72;;;16.30;99.90;;;;;;4889696;29;20033;-75
2021/09/28 09:27:10;;;;;;;23.80;6.90;;;16.40;99.90;;;;;;4859582;29;20029;-76
2021/09/28 09:29:36;;;;;;;14.27;6.95;;;16.40;99.90;;;;;;4879111;29;20033;-79
2021/09/28 09:32:03;;;;;;;23.65;8.48;;;16.50;99.90;;;;;;4876815;29;20032;-79
2021/09/28 09:34:28;;;;;;;29.17;7.50;;;16.60;99.90;;;;;;4863252;29;20041;-77
2021/09/28 09:37:05;;;;;;;16.45;6.80;;;16.60;99.90;;;;;;4880470;29;20039;-77
2021/09/28 09:39:55;;;;;;;14.73;6.55;;;16.70;99.90;;;;;;4876550;29;20053;-78
2021/09/28 09:42:23;;;;;;;14.80;5.70;;;16.90;99.90;;;;;;4868737;29;20041;-74
2021/09/28 09:44:49;;;;;;;25.85;6.05;;;16.80;99.90;;;;;;4881813;29;20041;-76
2021/09/28 09:47:26;;;;;;;12.18;5.72;;;16.80;99.90;;;;;;4859296;29;20069;-76
2021/09/28 09:50:09;;;;;;;13.27;5.60;;;16.90;99.90;;;;;;4873449;29;20033;-74
2021/09/28 09:52:35;;;;;;;10.30;4.80;;;16.90;99.90;;;;;;4892503;29;20025;-74
2021/09/28 09:55:01;;;;;;;19.90;6.20;;;16.90;99.90;;;;;;4877810;29;20032;-76
2021/09/28 09:57:26;;;;;;;13.68;5.35;;;17.00;99.90;;;;;;4879203;29;20037;-75
2021/09/28 09:59:52;;;;;;;12.50;5.75;;;17.10;99.90;;;;;;4876969;29;20052;-79
2021/09/28 10:02:17;;;;;;;12.88;4.63;;;17.10;99.90;;;;;;4894023;29;20033;-78
2021/09/28 10:04:45;;;;;;;14.40;5.50;;;17.20;99.90;;;;;;4894310;29;20025;-78
2021/09/28 10:07:13;;;;;;;10.38;5.05;;;17.30;99.90;;;;;;4884366;29;20053;-78
2021/09/28 10:09:42;;;;;;;15.13;5.45;;;17.40;99.90;;;;;;4877532;29;20588;-75
2021/09/28 10:12:10;;;;;;;24.83;5.55;;;17.40;99.90;;;;;;4883956;29;20033;-79
2021/09/28 10:14:40;;;;;;;10.57;5.18;;;17.50;99.90;;;;;;4866281;29;20435;-79
2021/09/28 10:17:24;;;;;;;11.02;4.53;;;17.50;99.90;;;;;;4877945;29;20048;-80
2021/09/28 10:19:54;;;;;;;;;;;17.60;99.90;;;;;;4869626;29;20034;-75
2021/09/28 10:22:40;;;;;;;14.20;5.95;;;17.60;99.90;;;;;;4883960;29;19919;-75
2021/09/28 10:25:35;;;;;;;16.73;4.63;;;17.70;99.90;;;;;;4866034;29;20126;-75
2021/09/28 10:28:04;;;;;;;7.00;3.92;;;17.80;99.90;;;;;;4876068;29;20040;-73
2021/09/28 10:30:36;;;;;;;11.27;4.55;;;17.90;99.90;;;;;;4883671;29;20029;-72
2021/09/28 10:33:06;;;;;;;12.63;4.40;;;18.00;99.90;;;;;;4867826;29;20120;-76
2021/09/28 10:35:34;;;;;;;9.82;4.63;;;18.00;99.90;;;;;;4886155;29;20049;-76
2021/09/28 10:38:01;;;;;;;13.73;4.53;;;18.10;99.90;;;;;;4883829;29;20032;-72
2021/09/28 10:40:48;;;;;;;7.00;3.22;;;18.30;99.90;;;;;;4882834;29;20049;-75
2021/09/28 10:43:29;;;;;;;12.63;4.57;;;18.40;99.90;;;;;;4864024;29;20037;-74
2021/09/28 10:45:56;;;;;;;17.27;4.40;;;18.50;99.90;;;;;;4882688;29;20144;-75
2021/09/28 10:48:28;;;;;;;7.97;4.05;;;18.70;99.90;;;;;;4867857;29;20045;-76
2021/09/28 10:51:21;;;;;;;6.70;3.17;;;18.80;99.90;;;;;;4893546;29;20033;-74
2021/09/28 10:53:51;;;;;;;5.65;2.97;;;18.90;99.90;;;;;;4876399;29;20038;-75
2021/09/28 10:56:18;;;;;;;10.70;4.70;;;19.00;99.90;;;;;;4874113;29;20179;-76
2021/09/28 10:58:51;;;;;;;12.23;3.38;;;19.20;99.90;;;;;;4877306;29;20041;-73
2021/09/28 11:01:18;;;;;;;15.38;3.97;;;19.30;99.90;;;;;;4866562;29;20489;-74
2021/09/28 11:03:56;;;;;;;10.43;3.63;;;19.30;99.90;;;;;;4874351;29;20037;-75
2021/09/28 11:06:52;;;;;;;6.43;3.45;;;19.50;99.90;;;;;;4867032;29;20387;-75
2021/09/28 11:09:20;;;;;;;10.25;4.38;;;19.60;99.90;;;;;;4869642;29;20146;-73
2021/09/28 11:11:52;;;;;;;14.98;3.40;;;19.60;99.90;;;;;;4876553;29;20025;-73
2021/09/28 11:14:18;;;;;;;10.13;3.90;;;19.70;99.90;;;;;;4870348;29;20104;-75
2021/09/28 11:16:53;;;;;;;8.38;3.13;;;19.80;99.90;;;;;;4881972;29;20036;-74
2021/09/28 11:19:20;;;;;;;14.77;3.40;;;19.80;99.90;;;;;;4869677;29;20058;-75
2021/09/28 11:21:47;;;;;;;7.40;3.30;;;19.90;99.90;;;;;;4870820;29;20037;-74
2021/09/28 11:24:19;;;;;;;5.80;2.88;;;20.00;99.90;;;;;;4875250;29;20033;-74
2021/09/28 11:26:45;;;;;;;16.92;3.72;;;20.10;99.90;;;;;;4891658;29;20049;-72
2021/09/28 11:29:19;;;;;;;9.25;3.97;;;20.10;99.90;;;;;;4872722;29;20076;-71
2021/09/28 11:31:45;;;;;;;17.08;4.85;;;20.00;99.90;;;;;;4891192;29;20040;-74
2021/09/28 11:34:11;;;;;;;8.30;3.97;;;20.10;99.90;;;;;;4890013;29;20041;-74
2021/09/28 11:36:40;;;;;;;8.63;3.67;;;20.10;99.90;;;;;;4878188;29;20088;-73
2021/09/28 11:39:14;;;;;;;5.63;3.38;;;20.20;99.90;;;;;;4878036;29;20105;-73
2021/09/28 11:41:42;;;;;;;6.40;4.10;;;20.30;99.90;;;;;;4880550;29;20049;-75
2021/09/28 11:44:15;;;;;;;12.88;4.20;;;20.50;99.90;;;;;;4872990;29;20064;-74
2021/09/28 11:46:41;;;;;;;12.73;3.83;;;20.80;99.90;;;;;;4875971;29;20085;-75
2021/09/28 11:49:09;;;;;;;9.30;4.97;;;21.10;99.90;;;;;;4875592;29;20075;-76
2021/09/28 11:51:38;;;;;;;10.20;3.80;;;21.30;99.90;;;;;;4883078;29;20085;-74
2021/09/28 11:54:07;;;;;;;8.25;3.67;;;21.40;99.90;;;;;;4875962;29;20040;-74
2021/09/28 11:56:41;;;;;;;7.50;3.60;;;21.60;99.90;;;;;;4880549;29;20053;-74
2021/09/28 11:59:15;;;;;;;5.97;3.53;;;21.90;99.90;;;;;;4880295;29;20044;-75
2021/09/28 12:01:41;;;;;;;12.95;3.95;;;22.00;99.90;;;;;;4890965;29;20041;-74
2021/09/28 12:04:17;;;;;;;7.68;3.70;;;22.10;99.90;;;;;;4888675;29;20036;-75
2021/09/28 12:09:34;;;;;;;9.05;3.63;;;21.40;99.90;;;;;;4890621;29;20092;-75
2021/09/28 12:12:12;;;;;;;10.60;3.15;;;21.00;99.90;;;;;;4889383;29;20044;-73
2021/09/28 12:14:41;;;;;;;4.10;2.75;;;21.00;99.90;;;;;;4890961;29;20045;-72
2021/09/28 12:17:38;;;;;;;7.50;3.28;;;21.10;99.90;;;;;;4888619;29;20052;-71
2021/09/28 12:20:05;;;;;;;10.73;3.30;;;21.40;99.90;;;;;;4868998;29;20052;-72
2021/09/28 12:22:48;;;;;;;9.38;2.72;;;21.70;99.90;;;;;;4890331;29;20025;-75
2021/09/28 12:25:24;;;;;;;5.07;2.15;;;21.80;99.90;;;;;;4890304;29;20033;-73
2021/09/28 12:28:07;;;;;;;3.88;2.33;;;21.40;99.90;;;;;;4891390;29;20040;-71
2021/09/28 12:30:36;;;;;;;9.48;2.42;;;21.40;99.90;;;;;;4889997;29;20044;-73
2021/09/28 12:33:05;;;;;;;6.32;3.10;;;21.40;99.90;;;;;;4890029;29;20055;-72
2021/09/28 12:35:36;;;;;;;9.88;2.83;;;21.20;99.90;;;;;;4890103;29;20153;-73
2021/09/28 12:38:11;;;;;;;5.53;2.78;;;20.80;99.90;;;;;;5115678;27;20344;-74
2021/09/28 12:40:44;;;;;;;4.75;2.60;;;20.50;99.90;;;;;;5102603;28;20028;-73
2021/09/28 12:43:14;;;;;;;6.50;1.70;;;20.50;99.90;;;;;;5100330;28;20051;-72
2021/09/28 12:45:52;;;;;;;8.02;2.30;;;20.40;99.90;;;;;;5101122;28;20020;-73
2021/09/28 12:48:40;;;;;;;8.05;2.10;;;20.30;99.90;;;;;;5101799;28;20035;-71
2021/09/28 12:51:07;;;;;;;4.30;2.05;;;20.00;99.90;;;;;;5100402;28;20031;-72
2021/09/28 12:53:34;;;;;;;6.22;2.08;;;19.80;99.90;;;;;;5110005;28;20028;-74